Aktualne dane pomiarowe

Uwaga, wersja testowa! Automatyczne pobieranie danych za pomocą narzędzi lub skryptów to umożliwiających jest zabronione.

Dane meteo z obszaru Polski uzyskane na podstawie depesz SYNOP pobieranych co godzinę z NWS. Najedź myszką na symbol przedstawiony w tabeli, aby uzyskać informacje co do jego znaczenia. Prosimy pamiętać, że to testowa wersja strony, która jeszcze nie jest ukończona. Stworzono również jest krótki FAQ dotyczący korzystania z tej podstrony Anomalie temperatury w chwili obecnej odniesione są do okresu referencyjnego 1951-2016. Okres ten będzie później zmieniony na 1981-2010. Kliknij ikonę aby pobrać plik CSV. Kliknij ikonę aby wygenerować mapę synoptyczną dla danego terminu.

Wybierz Datę:    

        

Racibórz (12540)

Dane terminowe dla wybranej stacji. Kliknij datę, aby otrzymać dane z tego terminu dla wszystkich stacji.

TemperaturaZachmurzenieWiatrCiśnienieOpadyPogoda
 Data t td wb tx tn tg rh  Nt Nl Cl Cm Ch ws wd g1 g2 wx mslp ppp ch 24h 12h t ww ww w1 w2  
2019-07-12 23:00:00 15.6 13.1 13.9--- 8535.0wxwxwxwx1wx--11010.7 986.3 -0.4---wx---
2019-07-12 22:00:00 16.3 13.0 14.1--- 8140.0wxwxwxwx1wx---1010.9 986.6 0.2---wx---
2019-07-12 21:00:00 16.8 13.3 14.4--- 8050.0wxwxwxwx1wx--11010.8 986.5 0.2---wx-w1--
2019-07-12 20:00:00 16.8 12.7 14.1--- 7750.0wxwxwxwx1wx--11011.0 986.7 0.2---------
2019-07-12 19:00:00 17.3 12.6 14.2--- 7450.0wxwxwxwx2wx--21010.6 986.4 -0.3---wx---
2019-07-12 18:00:00 18.5 12.9 14.9 24.6 17.4- 7035.0wxwxwxwx3wx--31010.4 986.3 -0.5--12wx---
2019-07-12 17:00:00 19.3 12.6 15.0--- 6530.0wxwxwxwx4wx--41010.6 986.5 -0.3---------
2019-07-12 16:00:00 19.8 11.3 14.6--- 5835.0wxwxwxwx5wx--51010.7 986.7 0.2---------
2019-07-12 15:00:00 20.6 11.2 14.9--- 5540.0wxwxwxwxwx5wx--51010.8 986.8 0.4---------
2019-07-12 14:00:00 21.0 10.8 14.9--- 5240.0wxwxwxwxwx6wx--61010.7 986.8 0.3---------
2019-07-12 13:00:00 22.3 10.1 15.1--- 4645.0wxwxwxwxwx6wx--61010.3 986.5 0.0---------
2019-07-12 12:00:00 22.4 8.5 14.4--- 4130.0wxwxwxwx4wx--41010.2 986.4 -0.6- 0.06------
2019-07-12 11:00:00 22.7 8.8 14.7--- 4130.0wxwxwxwxwx6wx--61010.3 986.5 -0.7---------
2019-07-12 10:00:00 24.1 7.7 14.8--- 3530.0wxwxwxwxwx6wx--61010.2 986.5 -1.0---------
2019-07-12 09:00:00 22.1 8.9 14.5--- 4330.0wxwxwxwxwx2wx---1010.8 987.0 -0.7---------
2019-07-12 08:00:00 21.4 8.3 13.9--- 4328.0wxwxwxwxwx3wx--31011.1 987.2 -0.5---------
2019-07-12 07:00:00 19.3 8.6 13.1--- 5045.0wx-wxwx4wx--41011.6 987.5 -0.2---------
2019-07-12 06:00:00 17.5 9.6 12.7 21.0 9.2 8 6030.0wx-wxwx2wx--21011.9 987.7 -0.1- 0.012----- 8.2
2019-07-12 05:00:00 14.3 9.1 11.1--- 7129.0wx-wx2wx---1012.2 987.7 -0.1---------
2019-07-12 04:00:00 11.9 8.6 9.8--- 8023.0wx-wx2wx--21012.4 987.7 -0.4---------
2019-07-12 03:00:00 10.3 7.7 8.6--- 8421.0wx-wx2wx--21012.7 987.8 -0.6---------
2019-07-12 02:00:00 11.6 8.4 9.5--- 8121.0wx-wx3wx--31012.6 987.8 -0.9---------
2019-07-12 01:00:00 11.1 7.8 9.0--- 8024.0wx-wxwx1wx--11012.9 988.1 -0.7---------
2019-07-12 00:00:00 9.8 6.5 7.7--- 8030.0wx-wxwx1wx--11013.3 988.4 -0.2- 0.06------
2019-07-11 23:00:00 9.9 6.2 7.6--- 7830.0wx-wxwx1wx--11013.6 988.7 0.3---------
2019-07-11 22:00:00 11.2 6.9 8.6--- 7530.0wx-wx1wx--11013.6 988.8 0.8---------
2019-07-11 21:00:00 13.1 7.1 9.5--- 6723.0wx-wx2wx--21013.2 988.6 1.0---------
2019-07-11 20:00:00 13.9 5.8 9.3--- 5814.0wxwxwxwx1wx--11013.0 988.4 0.8---------
2019-07-11 19:00:00 18.8 6.3 11.9--- 4440.0wxwxwxwx1wx--11012.1 988.0 0.4---------
2019-07-11 18:00:00 21.0 5.3 12.5 23.5 15.7- 3650.0wxwxwxwx2wx-1021011.5 987.6 -0.1- 0.012------
2019-07-11 17:00:00 22.1 5.1 12.9--- 3340.0wxwxwx3wx--31011.5 987.6 -0.1---------
2019-07-11 16:00:00 22.2 5.2 13.0--- 3340.0wxwxwx3wx-1031011.4 987.6 -0.4---------
2019-07-11 15:00:00 22.6 5.1 13.1--- 3240.0wxwxwx4wx--41011.5 987.7 -0.3---------
2019-07-11 14:00:00 22.0 5.0 12.8--- 3340.0wxwxwx5wx--51011.6 987.7 -0.5---------
2019-07-11 13:00:00 22.2 6.0 13.3--- 3540.0wxwxwx7wx--71011.9 988.0 -0.3---------
2019-07-11 12:00:00 21.0 6.5 13.0--- 3945.0wxwxwx7wx-1271012.0 988.0 -0.7- 0.06------
2019-07-11 11:00:00 21.4 7.6 13.6--- 4140.0wxwxwxwx6wx--61012.1 988.2 -0.8---------
2019-07-11 10:00:00 20.2 5.8 12.3--- 3940.0wxwxwx7wx121271012.3 988.3 -1.0---------
2019-07-11 09:00:00 19.4 8.1 12.9--- 4840.0wxwxwx7wx--71012.8 988.7 -0.6---------
2019-07-11 08:00:00 18.7 9.7 13.3--- 5635.0wxwxwxwx6wx--61013.2 989.0 -0.3---------
2019-07-11 07:00:00 17.1 10.2 12.9--- 6440.0wxwxwxwx5wx---1013.6 989.3 0.0---------
2019-07-11 06:00:00 15.7 10.2 12.3 15.9 11.2 9 7040.0wx-wx3wx--31013.7 989.3 0.1--12----- 6.4
2019-07-11 05:00:00 14.0 10.6 11.8--- 8035.0wxwxwxwx2wx--21013.9 989.3 0.0---------
2019-07-11 04:00:00 12.9 10.1 11.0--- 8340.0wxwxwxwx2wx--21014.0 989.3 -0.3---------
2019-07-11 03:00:00 13.3 10.1 11.2--- 8150.0wxwxwxwx1wx--11013.8 989.2 -0.6---------
2019-07-11 02:00:00 13.3 10.5 11.4--- 8350.0wxwxwx2wx--21013.9 989.3 -0.8---------
2019-07-11 01:00:00 13.4 10.4 11.4--- 8245.0wxwxwx3wx--31014.2 989.6 -0.8---------
2019-07-11 00:00:00 12.8 10.2 11.1--- 8445.0wxwxwx2wx--21014.5 989.8 -1.1--6wx-w1--
1.7 ms

 

Print Friendly, PDF & Email